createdAt,value
2022-08-26T00:00:21.600Z,11.83
2022-08-26T00:02:50.111Z,10.47
2022-08-26T00:05:18.680Z,11.20
2022-08-26T00:07:47.151Z,12.60
2022-08-26T00:10:16.124Z,11.37
2022-08-26T00:12:45.932Z,13.10
2022-08-26T00:15:19.075Z,12.20
2022-08-26T00:17:51.619Z,10.93
2022-08-26T00:20:24.309Z,11.13
2022-08-26T00:22:55.089Z,10.07
2022-08-26T00:25:24.724Z,10.37
2022-08-26T00:27:53.241Z,9.83
2022-08-26T00:30:24.852Z,9.27
2022-08-26T00:32:58.479Z,9.60
2022-08-26T00:35:29.190Z,10.17
2022-08-26T00:37:58.960Z,10.43
2022-08-26T00:40:31.300Z,10.50
2022-08-26T00:43:00.750Z,9.57
2022-08-26T00:45:33.088Z,11.73
2022-08-26T00:48:06.572Z,9.93
2022-08-26T00:50:38.927Z,10.27
2022-08-26T00:53:24.205Z,9.87
2022-08-26T00:55:59.130Z,13.27
2022-08-26T00:58:34.065Z,12.40
2022-08-26T01:01:03.410Z,9.80
2022-08-26T01:03:35.968Z,10.47
2022-08-26T01:06:12.344Z,9.90
2022-08-26T01:08:42.347Z,10.07
2022-08-26T01:11:12.456Z,9.93
2022-08-26T01:13:42.322Z,9.40
2022-08-26T01:16:15.726Z,10.50
2022-08-26T01:18:46.925Z,10.33
2022-08-26T01:21:22.107Z,9.00
2022-08-26T01:23:57.356Z,10.00
2022-08-26T01:26:30.677Z,8.77
2022-08-26T01:29:02.984Z,9.90
2022-08-26T01:31:43.357Z,9.27
2022-08-26T01:34:17.527Z,9.47
2022-08-26T01:36:51.394Z,9.23
2022-08-26T01:39:22.020Z,8.47
2022-08-26T01:41:53.734Z,9.73
2022-08-26T01:44:25.947Z,10.63
2022-08-26T01:46:55.903Z,9.23
2022-08-26T01:49:26.271Z,9.20
2022-08-26T01:51:57.522Z,8.97
2022-08-26T01:54:28.028Z,9.23
2022-08-26T01:56:57.070Z,8.93
2022-08-26T01:59:26.627Z,9.00
2022-08-26T02:01:55.326Z,7.70
2022-08-26T02:04:27.780Z,8.83
2022-08-26T02:06:57.888Z,7.80
2022-08-26T02:09:29.314Z,8.50
2022-08-26T02:12:01.388Z,7.80
2022-08-26T02:14:34.840Z,8.80
2022-08-26T02:17:07.203Z,8.30
2022-08-26T02:19:40.516Z,8.17
2022-08-26T02:22:13.962Z,7.90
2022-08-26T02:24:52.794Z,7.43
2022-08-26T02:27:32.027Z,8.70
2022-08-26T02:30:08.669Z,8.33
2022-08-26T02:32:40.202Z,6.87
2022-08-26T02:35:11.418Z,8.77
2022-08-26T02:37:41.859Z,8.63
2022-08-26T02:40:14.441Z,7.77
2022-08-26T02:42:43.540Z,7.27
2022-08-26T02:45:12.920Z,8.13
2022-08-26T02:47:41.643Z,8.27
2022-08-26T02:50:11.000Z,7.53
2022-08-26T02:52:39.534Z,7.57
2022-08-26T02:55:09.617Z,6.77
2022-08-26T02:57:39.578Z,7.80
2022-08-26T03:00:12.059Z,6.90
2022-08-26T03:02:40.579Z,7.07
2022-08-26T03:05:09.953Z,7.43
2022-08-26T03:07:38.575Z,7.93
2022-08-26T03:10:08.904Z,8.83
2022-08-26T03:12:39.895Z,7.60
2022-08-26T03:15:17.538Z,7.73
2022-08-26T03:17:47.892Z,7.63
2022-08-26T03:20:17.340Z,7.00
2022-08-26T03:22:47.161Z,7.40
2022-08-26T03:25:18.606Z,9.17
2022-08-26T03:27:48.511Z,7.57
2022-08-26T03:30:35.100Z,7.87
2022-08-26T03:33:04.495Z,7.43
2022-08-26T03:35:34.303Z,7.37
2022-08-26T03:38:03.468Z,6.70
2022-08-26T03:40:33.853Z,7.57
2022-08-26T03:43:04.585Z,7.70
2022-08-26T03:45:33.412Z,8.30
2022-08-26T03:48:02.056Z,8.17
2022-08-26T03:50:31.174Z,9.60
2022-08-26T03:53:04.208Z,8.77
2022-08-26T03:55:35.996Z,7.33
2022-08-26T03:58:06.416Z,7.87
2022-08-26T04:00:35.026Z,6.67
2022-08-26T04:03:04.754Z,7.17
2022-08-26T04:05:33.592Z,8.43
2022-08-26T04:08:02.814Z,7.60
2022-08-26T04:10:31.358Z,7.53
2022-08-26T04:13:00.514Z,7.87
2022-08-26T04:15:30.635Z,7.57
2022-08-26T04:17:59.115Z,7.13
2022-08-26T04:20:27.875Z,8.13
2022-08-26T04:22:56.660Z,8.73
2022-08-26T04:25:25.593Z,7.80
2022-08-26T04:27:54.039Z,8.30
2022-08-26T04:30:23.168Z,7.63
2022-08-26T04:32:53.923Z,8.17
2022-08-26T04:35:25.775Z,7.73
2022-08-26T04:37:55.724Z,8.90
2022-08-26T04:40:26.667Z,8.13
2022-08-26T04:42:55.696Z,7.27
2022-08-26T04:45:24.558Z,7.73
2022-08-26T04:47:57.599Z,8.57
2022-08-26T04:50:27.076Z,8.27
2022-08-26T04:52:56.508Z,7.47
2022-08-26T04:55:38.175Z,7.23
2022-08-26T04:58:10.391Z,6.57
2022-08-26T05:00:39.993Z,7.47
2022-08-26T05:03:10.814Z,6.90
2022-08-26T05:05:41.373Z,7.67
2022-08-26T05:08:11.424Z,8.30
2022-08-26T05:10:44.401Z,6.73
2022-08-26T05:13:15.500Z,6.10
2022-08-26T05:15:45.256Z,7.77
2022-08-26T05:18:17.722Z,6.77
2022-08-26T05:20:51.155Z,6.43
2022-08-26T05:23:23.661Z,6.33
2022-08-26T05:25:58.899Z,12.77
2022-08-26T05:28:30.667Z,7.13
2022-08-26T05:30:59.143Z,7.53
2022-08-26T05:33:30.401Z,7.07
2022-08-26T05:35:58.876Z,7.30
2022-08-26T05:38:30.458Z,7.97
2022-08-26T05:40:59.128Z,7.27
2022-08-26T05:43:28.846Z,8.50
2022-08-26T05:46:07.072Z,8.17
2022-08-26T05:48:38.287Z,6.63
2022-08-26T05:51:09.733Z,6.37
2022-08-26T05:53:40.143Z,10.60
2022-08-26T05:56:13.500Z,9.03
2022-08-26T05:58:43.115Z,8.50
2022-08-26T06:01:17.276Z,6.67
2022-08-26T06:03:49.783Z,7.03
2022-08-26T06:06:21.516Z,6.23
2022-08-26T06:08:57.965Z,7.03
2022-08-26T06:11:28.917Z,7.20
2022-08-26T06:14:03.263Z,6.93
2022-08-26T06:16:35.180Z,7.83
2022-08-26T06:19:10.894Z,7.40
2022-08-26T06:21:41.301Z,8.20
2022-08-26T06:24:29.392Z,7.47
2022-08-26T06:27:01.482Z,8.47
2022-08-26T06:29:33.129Z,8.20
2022-08-26T06:32:02.723Z,6.93
2022-08-26T06:34:33.908Z,18.07
2022-08-26T06:37:03.745Z,8.73
2022-08-26T06:39:32.911Z,7.53
2022-08-26T06:42:02.531Z,8.53
2022-08-26T06:44:35.568Z,7.70
2022-08-26T06:47:04.121Z,7.87
2022-08-26T06:49:34.505Z,9.33
2022-08-26T06:52:05.086Z,7.73
2022-08-26T06:54:33.541Z,10.40
2022-08-26T06:57:02.236Z,9.93
2022-08-26T06:59:31.272Z,9.80
2022-08-26T07:01:59.981Z,8.43
2022-08-26T07:04:28.955Z,12.30
2022-08-26T07:06:58.789Z,7.57
2022-08-26T07:09:29.302Z,10.18
2022-08-26T07:11:57.955Z,9.30
2022-08-26T07:14:27.018Z,10.20
2022-08-26T07:16:55.819Z,9.90
2022-08-26T07:19:30.657Z,6.90
2022-08-26T07:22:03.402Z,8.63
2022-08-26T07:24:32.847Z,7.63
2022-08-26T07:27:02.832Z,10.45
2022-08-26T07:29:32.538Z,9.45
2022-08-26T07:32:01.296Z,6.13
2022-08-26T07:34:32.220Z,5.93
2022-08-26T07:37:03.137Z,6.05
2022-08-26T07:39:33.058Z,7.50
2022-08-26T07:42:07.380Z,10.35
2022-08-26T07:44:39.743Z,7.40
2022-08-26T07:47:25.287Z,7.75
2022-08-26T07:49:56.238Z,7.47
2022-08-26T07:52:27.919Z,6.32
2022-08-26T07:54:58.288Z,7.03
2022-08-26T07:57:26.931Z,7.25
2022-08-26T07:59:55.952Z,6.78
2022-08-26T08:02:26.234Z,7.28
2022-08-26T08:04:55.309Z,7.43
2022-08-26T08:07:38.721Z,6.60
2022-08-26T08:10:16.307Z,9.20
2022-08-26T08:12:45.040Z,7.70
2022-08-26T08:15:14.694Z,7.05
2022-08-26T08:17:44.061Z,7.15
2022-08-26T08:20:13.411Z,7.20
2022-08-26T08:22:44.706Z,7.07
2022-08-26T08:25:14.768Z,6.80
2022-08-26T08:27:45.977Z,7.70
2022-08-26T08:30:20.926Z,10.77
2022-08-26T08:32:52.440Z,7.22
2022-08-26T08:35:22.553Z,7.40
2022-08-26T08:37:54.833Z,7.38
2022-08-26T08:40:26.954Z,7.65
2022-08-26T08:43:03.439Z,7.80
2022-08-26T08:45:37.213Z,8.57
2022-08-26T08:48:08.449Z,8.40
2022-08-26T08:50:45.824Z,9.10
2022-08-26T08:53:19.231Z,7.20
2022-08-26T08:56:05.732Z,6.85
2022-08-26T08:58:48.134Z,6.97
2022-08-26T09:01:29.332Z,6.85
2022-08-26T09:04:18.551Z,6.90
2022-08-26T09:06:49.802Z,7.00
2022-08-26T09:09:25.271Z,7.18
2022-08-26T09:11:54.415Z,6.88
2022-08-26T09:14:23.043Z,7.45
2022-08-26T09:17:02.534Z,6.90
2022-08-26T09:19:40.581Z,7.13
2022-08-26T09:22:09.650Z,8.25
2022-08-26T09:24:41.526Z,7.40
2022-08-26T09:27:11.694Z,6.22
2022-08-26T09:29:44.263Z,6.25
2022-08-26T09:32:20.585Z,6.50
2022-08-26T09:34:58.575Z,6.22
2022-08-26T09:37:40.506Z,6.07
2022-08-26T09:40:23.635Z,5.75
2022-08-26T09:43:12.057Z,6.05
2022-08-26T09:45:50.075Z,6.60
2022-08-26T09:48:29.375Z,6.65
2022-08-26T09:51:00.827Z,6.90
2022-08-26T09:53:32.296Z,5.65
2022-08-26T09:56:17.977Z,5.65
2022-08-26T09:58:48.669Z,5.82
2022-08-26T10:01:26.919Z,4.57
2022-08-26T10:04:07.436Z,5.18
2022-08-26T10:06:39.979Z,6.30
2022-08-26T10:09:12.394Z,6.43
2022-08-26T10:11:47.293Z,6.13
2022-08-26T10:14:20.407Z,5.85
2022-08-26T10:16:54.132Z,5.82
2022-08-26T10:19:41.340Z,6.38
2022-08-26T10:22:20.720Z,7.78
2022-08-26T10:24:55.102Z,7.22
2022-08-26T10:27:37.610Z,6.10
2022-08-26T10:30:11.756Z,9.15
2022-08-26T10:32:43.746Z,6.75
2022-08-26T10:35:14.567Z,6.22
2022-08-26T10:37:46.950Z,6.60
2022-08-26T10:40:21.608Z,6.07
2022-08-26T10:42:56.984Z,5.95
2022-08-26T10:45:28.634Z,5.32
2022-08-26T10:48:02.908Z,5.40
2022-08-26T10:50:35.466Z,5.18
2022-08-26T10:53:14.907Z,6.40
2022-08-26T10:55:53.039Z,5.10
2022-08-26T10:58:44.597Z,5.40
2022-08-26T11:01:40.884Z,5.07
2022-08-26T11:04:22.644Z,5.22
2022-08-26T11:07:11.640Z,5.10
2022-08-26T11:09:46.177Z,5.63
2022-08-26T11:12:53.509Z,6.20
2022-08-26T11:16:10.196Z,6.45
2022-08-26T11:18:51.358Z,5.95
2022-08-26T11:22:06.144Z,5.85
2022-08-26T11:25:00.894Z,5.72
2022-08-26T11:28:07.209Z,6.05
2022-08-26T11:30:44.202Z,7.75
2022-08-26T11:33:33.372Z,10.85
2022-08-26T11:36:11.543Z,6.22
2022-08-26T11:38:43.840Z,7.22
2022-08-26T11:41:19.182Z,6.18
2022-08-26T11:43:52.330Z,5.63
2022-08-26T11:46:26.972Z,6.53
2022-08-26T11:49:02.629Z,6.72
2022-08-26T11:51:40.486Z,6.00
2022-08-26T11:54:12.442Z,5.80
2022-08-26T11:56:43.243Z,6.75
2022-08-26T11:59:16.693Z,6.53
2022-08-26T12:01:49.983Z,5.60
2022-08-26T12:04:30.319Z,5.72
2022-08-26T12:07:08.639Z,6.25
2022-08-26T12:09:39.236Z,7.60
2022-08-26T12:12:14.357Z,7.15
2022-08-26T12:14:43.735Z,7.70
2022-08-26T12:17:13.699Z,6.68
2022-08-26T12:19:42.306Z,7.40
2022-08-26T12:22:25.568Z,6.55
2022-08-26T12:24:59.456Z,6.32
2022-08-26T12:27:30.192Z,6.85
2022-08-26T12:30:08.480Z,7.22
2022-08-26T12:32:51.073Z,6.93
2022-08-26T12:35:29.591Z,6.25
2022-08-26T12:37:59.874Z,6.35
2022-08-26T12:40:37.379Z,5.80
2022-08-26T12:43:07.517Z,5.53
2022-08-26T12:45:37.893Z,5.50
2022-08-26T12:48:11.151Z,6.47
2022-08-26T12:50:45.664Z,5.63
2022-08-26T12:53:22.957Z,5.75
2022-08-26T12:55:54.139Z,5.55
2022-08-26T12:58:27.019Z,6.43
2022-08-26T13:00:57.603Z,5.65
2022-08-26T13:03:44.906Z,5.70
2022-08-26T13:06:28.020Z,5.20
2022-08-26T13:08:59.925Z,5.03
2022-08-26T13:11:30.627Z,6.53
2022-08-26T13:14:07.409Z,5.60
2022-08-26T13:16:38.120Z,5.78
2022-08-26T13:19:11.358Z,6.13
2022-08-26T13:21:45.051Z,6.45
2022-08-26T13:24:17.882Z,4.95
2022-08-26T13:26:49.155Z,6.07
2022-08-26T13:29:18.616Z,5.70
2022-08-26T13:31:48.057Z,6.10
2022-08-26T13:34:19.285Z,6.45
2022-08-26T13:36:48.943Z,6.45
2022-08-26T13:39:19.727Z,5.85
2022-08-26T13:41:48.938Z,6.15
2022-08-26T13:44:19.011Z,5.60
2022-08-26T13:46:50.756Z,6.55
2022-08-26T13:49:26.720Z,5.80
2022-08-26T13:51:57.845Z,6.70
2022-08-26T13:54:32.025Z,6.28
2022-08-26T13:57:04.867Z,6.30
2022-08-26T13:59:35.640Z,6.35
2022-08-26T14:02:05.438Z,6.40
2022-08-26T14:04:34.041Z,6.20
2022-08-26T14:07:02.632Z,6.53
2022-08-26T14:09:36.584Z,8.00
2022-08-26T14:12:07.502Z,6.85
2022-08-26T14:14:36.059Z,6.50
2022-08-26T14:17:04.875Z,6.82
2022-08-26T14:19:33.694Z,6.22
2022-08-26T14:22:03.270Z,6.20
2022-08-26T14:24:33.236Z,7.97
2022-08-26T14:27:02.048Z,5.95
2022-08-26T14:29:30.565Z,5.65
2022-08-26T14:32:02.627Z,6.57
2022-08-26T14:34:31.354Z,6.03
2022-08-26T14:36:59.947Z,8.35
2022-08-26T14:39:38.866Z,6.68
2022-08-26T14:42:09.182Z,6.70
2022-08-26T14:44:38.864Z,6.13
2022-08-26T14:47:07.787Z,6.28
2022-08-26T14:49:36.734Z,6.82
2022-08-26T14:52:05.637Z,6.50
2022-08-26T14:54:33.261Z,6.57
2022-08-26T14:57:05.192Z,6.00
2022-08-26T14:59:36.768Z,6.28
2022-08-26T15:02:06.327Z,6.35
2022-08-26T15:04:35.997Z,7.68
2022-08-26T15:07:04.931Z,6.60
2022-08-26T15:09:37.003Z,6.97
2022-08-26T15:12:07.639Z,6.00
2022-08-26T15:14:36.227Z,6.65
2022-08-26T15:17:04.817Z,6.10
2022-08-26T15:19:33.389Z,7.03
2022-08-26T15:22:01.897Z,6.35
2022-08-26T15:24:30.408Z,6.38
2022-08-26T15:26:59.847Z,6.38
2022-08-26T15:29:29.779Z,6.55
2022-08-26T15:32:01.650Z,6.43
2022-08-26T15:34:30.378Z,6.68
2022-08-26T15:36:58.894Z,6.78
2022-08-26T15:39:27.737Z,6.05
2022-08-26T15:41:56.689Z,6.28
2022-08-26T15:44:26.262Z,6.25
2022-08-26T15:46:58.625Z,6.45
2022-08-26T15:49:28.244Z,6.47
2022-08-26T15:51:56.856Z,6.47
2022-08-26T15:54:25.909Z,6.00
2022-08-26T15:56:54.497Z,7.88
2022-08-26T15:59:23.953Z,6.70
2022-08-26T16:01:53.378Z,6.60
2022-08-26T16:04:23.496Z,6.32
2022-08-26T16:06:52.318Z,6.00
2022-08-26T16:09:24.308Z,6.78
2022-08-26T16:11:54.138Z,6.45
2022-08-26T16:14:23.013Z,6.80
2022-08-26T16:16:51.871Z,6.35
2022-08-26T16:19:21.347Z,6.65
2022-08-26T16:21:51.685Z,5.93
2022-08-26T16:24:25.871Z,6.10
2022-08-26T16:26:56.001Z,6.65
2022-08-26T16:29:24.673Z,6.05
2022-08-26T16:31:54.852Z,7.43
2022-08-26T16:34:23.481Z,6.97
2022-08-26T16:36:54.166Z,8.50
2022-08-26T16:39:22.705Z,6.82
2022-08-26T16:41:51.241Z,7.15
2022-08-26T16:44:20.074Z,6.47
2022-08-26T16:46:48.878Z,6.53
2022-08-26T16:49:17.747Z,6.50
2022-08-26T16:51:46.992Z,6.38
2022-08-26T16:54:16.935Z,6.72
2022-08-26T16:56:45.602Z,8.27
2022-08-26T16:59:14.153Z,7.88
2022-08-26T17:01:42.731Z,7.75
2022-08-26T17:04:11.413Z,7.55
2022-08-26T17:06:40.126Z,6.97
2022-08-26T17:09:08.884Z,7.50
2022-08-26T17:11:38.829Z,6.53
2022-08-26T17:14:07.769Z,6.28
2022-08-26T17:16:36.337Z,6.93
2022-08-26T17:19:05.792Z,8.23
2022-08-26T17:21:35.433Z,7.55
2022-08-26T17:24:04.571Z,7.38
2022-08-26T17:26:33.424Z,6.90
2022-08-26T17:29:03.358Z,7.63
2022-08-26T17:31:32.644Z,8.02
2022-08-26T17:34:01.269Z,9.13
2022-08-26T17:36:29.842Z,7.97
2022-08-26T17:38:59.234Z,7.68
2022-08-26T17:41:28.560Z,6.50
2022-08-26T17:43:57.221Z,7.72
2022-08-26T17:46:27.484Z,7.63
2022-08-26T17:48:56.478Z,8.23
2022-08-26T17:51:25.175Z,8.77
2022-08-26T17:53:54.318Z,9.27
2022-08-26T17:56:25.611Z,8.15
2022-08-26T17:58:56.852Z,7.97
2022-08-26T18:01:29.191Z,7.45
2022-08-26T18:04:00.464Z,7.93
2022-08-26T18:06:30.448Z,8.23
2022-08-26T18:08:59.748Z,8.77
2022-08-26T18:11:29.180Z,8.60
2022-08-26T18:13:57.695Z,8.45
2022-08-26T18:16:30.070Z,8.68
2022-08-26T18:18:59.307Z,8.80
2022-08-26T18:21:29.241Z,10.10
2022-08-26T18:23:57.871Z,9.43
2022-08-26T18:26:28.471Z,8.93
2022-08-26T18:28:57.320Z,12.35
2022-08-26T18:31:27.700Z,11.05
2022-08-26T18:33:56.813Z,9.40
2022-08-26T18:36:28.978Z,10.02
2022-08-26T18:38:58.751Z,10.63
2022-08-26T18:41:30.161Z,16.63
2022-08-26T18:43:58.904Z,12.18
2022-08-26T18:46:29.579Z,12.80
2022-08-26T18:48:58.585Z,10.73
2022-08-26T18:51:29.746Z,10.98
2022-08-26T18:53:58.998Z,9.68
2022-08-26T18:56:27.654Z,13.95
2022-08-26T18:58:56.349Z,9.13
2022-08-26T19:01:27.604Z,8.98
2022-08-26T19:03:58.065Z,9.40
2022-08-26T19:06:28.592Z,11.25
2022-08-26T19:08:58.005Z,10.98
2022-08-26T19:11:32.484Z,10.57
2022-08-26T19:14:08.415Z,10.30
2022-08-26T19:16:38.960Z,10.20
2022-08-26T19:19:09.988Z,9.68
2022-08-26T19:21:39.538Z,11.27
2022-08-26T19:24:15.485Z,11.65
2022-08-26T19:26:45.285Z,10.80
2022-08-26T19:29:14.065Z,11.75
2022-08-26T19:31:43.960Z,10.23
2022-08-26T19:34:14.083Z,10.77
2022-08-26T19:36:47.539Z,10.48
2022-08-26T19:39:16.021Z,12.73
2022-08-26T19:41:44.548Z,9.85
2022-08-26T19:44:35.996Z,10.97
2022-08-26T19:47:05.586Z,9.47
2022-08-26T19:49:36.032Z,12.50
2022-08-26T19:52:05.726Z,10.60
2022-08-26T19:54:35.323Z,16.70
2022-08-26T19:57:03.839Z,13.57
2022-08-26T19:59:33.200Z,11.83
2022-08-26T20:02:02.260Z,12.38
2022-08-26T20:04:31.615Z,11.10
2022-08-26T20:07:02.939Z,10.40
2022-08-26T20:09:34.387Z,10.20
2022-08-26T20:12:06.152Z,10.57
2022-08-26T20:14:36.272Z,9.17
2022-08-26T20:17:05.342Z,11.30
2022-08-26T20:19:51.726Z,11.05
2022-08-26T20:22:22.532Z,9.20
2022-08-26T20:24:51.807Z,17.60
2022-08-26T20:27:22.381Z,9.43
2022-08-26T20:29:50.977Z,9.27
2022-08-26T20:32:20.101Z,8.33
2022-08-26T20:34:49.387Z,9.00
2022-08-26T20:37:19.232Z,9.50
2022-08-26T20:39:51.695Z,10.80
2022-08-26T20:42:20.707Z,12.70
2022-08-26T20:44:54.445Z,8.93
2022-08-26T20:47:23.598Z,8.37
2022-08-26T20:49:56.175Z,8.53
2022-08-26T20:52:26.104Z,9.80
2022-08-26T20:54:56.251Z,10.03
2022-08-26T20:57:24.835Z,9.27
2022-08-26T20:59:53.457Z,9.17
2022-08-26T21:02:22.121Z,8.10
2022-08-26T21:04:50.681Z,8.80
2022-08-26T21:07:20.956Z,11.90
2022-08-26T21:09:51.658Z,8.87
2022-08-26T21:12:21.667Z,10.07
2022-08-26T21:14:50.241Z,10.63
2022-08-26T21:17:18.971Z,9.20
2022-08-26T21:19:47.546Z,9.93
2022-08-26T21:22:16.145Z,10.50
2022-08-26T21:24:44.670Z,9.47
2022-08-26T21:27:13.296Z,8.90
2022-08-26T21:29:49.589Z,8.80
2022-08-26T21:32:20.671Z,9.70
2022-08-26T21:34:49.242Z,8.87
2022-08-26T21:37:18.764Z,11.10
2022-08-26T21:39:47.302Z,9.27
2022-08-26T21:42:15.889Z,10.03
2022-08-26T21:44:50.844Z,10.00
2022-08-26T21:47:23.372Z,10.57
2022-08-26T21:49:52.466Z,8.47
2022-08-26T21:52:21.513Z,8.10
2022-08-26T21:54:50.056Z,10.30
2022-08-26T21:57:18.961Z,8.73
2022-08-26T21:59:47.513Z,11.20
2022-08-26T22:02:16.079Z,10.03
2022-08-26T22:04:48.816Z,10.80
2022-08-26T22:07:19.247Z,10.40
2022-08-26T22:09:47.774Z,10.27
2022-08-26T22:12:18.538Z,11.73
2022-08-26T22:14:48.319Z,9.30
2022-08-26T22:17:17.258Z,9.63
2022-08-26T22:19:47.265Z,7.67
2022-08-26T22:22:16.465Z,8.73
2022-08-26T22:24:45.175Z,7.90
2022-08-26T22:27:14.757Z,9.60
2022-08-26T22:29:43.366Z,8.67
2022-08-26T22:32:11.941Z,10.23
2022-08-26T22:34:41.242Z,8.80
2022-08-26T22:37:11.309Z,8.30
2022-08-26T22:39:40.247Z,9.97
2022-08-26T22:42:09.299Z,13.53
2022-08-26T22:44:37.902Z,9.93
2022-08-26T22:47:06.793Z,9.00
2022-08-26T22:49:35.311Z,9.73
2022-08-26T22:52:04.360Z,8.13
2022-08-26T22:54:34.333Z,10.63
2022-08-26T22:57:02.953Z,8.17
2022-08-26T22:59:31.539Z,9.40
2022-08-26T23:02:00.129Z,9.20
2022-08-26T23:04:28.700Z,9.93
2022-08-26T23:06:57.285Z,9.30
2022-08-26T23:09:25.854Z,8.63
2022-08-26T23:11:56.673Z,8.83
2022-08-26T23:14:26.216Z,8.60
2022-08-26T23:16:54.908Z,8.57
2022-08-26T23:19:24.562Z,8.47
2022-08-26T23:21:53.466Z,8.20
2022-08-26T23:24:22.251Z,9.03
2022-08-26T23:26:50.818Z,9.00
2022-08-26T23:29:20.801Z,9.90
2022-08-26T23:31:49.347Z,8.67
2022-08-26T23:34:35.508Z,8.43
2022-08-26T23:37:06.242Z,9.20
2022-08-26T23:39:36.286Z,8.83
2022-08-26T23:42:06.723Z,9.13
2022-08-26T23:44:36.649Z,9.43
2022-08-26T23:47:06.226Z,7.77
2022-08-26T23:49:35.797Z,7.97
2022-08-26T23:52:22.672Z,8.27
2022-08-26T23:54:53.003Z,8.77
2022-08-26T23:57:23.732Z,10.07
2022-08-26T23:59:54.231Z,8.90
